sensor_id;sensor_type;location;lat;lon;timestamp;P1;durP1;ratioP1;P2;durP2;ratioP2
31760;SDS011;18335;51.486;7.562;2022-10-31T00:01:18;17.85;;;6.70;;
31760;SDS011;18335;51.486;7.562;2022-10-31T00:03:47;13.75;;;5.60;;
31760;SDS011;18335;51.486;7.562;2022-10-31T00:06:14;19.45;;;5.88;;
31760;SDS011;18335;51.486;7.562;2022-10-31T00:08:44;13.93;;;5.07;;
31760;SDS011;18335;51.486;7.562;2022-10-31T00:11:11;16.60;;;5.72;;
31760;SDS011;18335;51.486;7.562;2022-10-31T00:13:38;16.55;;;6.28;;
31760;SDS011;18335;51.486;7.562;2022-10-31T00:16:05;13.95;;;5.55;;
31760;SDS011;18335;51.486;7.562;2022-10-31T00:18:38;17.65;;;5.63;;
31760;SDS011;18335;51.486;7.562;2022-10-31T00:21:05;20.98;;;5.95;;
31760;SDS011;18335;51.486;7.562;2022-10-31T00:23:32;18.80;;;5.32;;
31760;SDS011;18335;51.486;7.562;2022-10-31T00:26:01;14.57;;;5.97;;
31760;SDS011;18335;51.486;7.562;2022-10-31T00:28:29;18.73;;;6.35;;
31760;SDS011;18335;51.486;7.562;2022-10-31T00:30:58;18.67;;;5.90;;
31760;SDS011;18335;51.486;7.562;2022-10-31T00:33:25;16.15;;;5.50;;
31760;SDS011;18335;51.486;7.562;2022-10-31T00:35:52;16.15;;;5.95;;
31760;SDS011;18335;51.486;7.562;2022-10-31T00:38:19;12.57;;;5.07;;
31760;SDS011;18335;51.486;7.562;2022-10-31T00:40:45;18.05;;;6.07;;
31760;SDS011;18335;51.486;7.562;2022-10-31T00:43:13;14.63;;;5.47;;
31760;SDS011;18335;51.486;7.562;2022-10-31T00:45:40;18.55;;;6.20;;
31760;SDS011;18335;51.486;7.562;2022-10-31T00:48:07;16.95;;;6.10;;
31760;SDS011;18335;51.486;7.562;2022-10-31T00:50:34;16.40;;;5.57;;
31760;SDS011;18335;51.486;7.562;2022-10-31T00:53:01;16.88;;;6.35;;
31760;SDS011;18335;51.486;7.562;2022-10-31T00:55:28;17.35;;;5.88;;
31760;SDS011;18335;51.486;7.562;2022-10-31T00:57:54;17.50;;;5.63;;
31760;SDS011;18335;51.486;7.562;2022-10-31T01:00:23;13.00;;;5.30;;
31760;SDS011;18335;51.486;7.562;2022-10-31T01:02:50;13.30;;;5.75;;
31760;SDS011;18335;51.486;7.562;2022-10-31T01:05:17;15.98;;;5.72;;
31760;SDS011;18335;51.486;7.562;2022-10-31T01:07:44;13.27;;;5.90;;
31760;SDS011;18335;51.486;7.562;2022-10-31T01:10:11;13.05;;;5.78;;
31760;SDS011;18335;51.486;7.562;2022-10-31T01:12:38;16.77;;;6.35;;
31760;SDS011;18335;51.486;7.562;2022-10-31T01:15:05;16.70;;;6.97;;
31760;SDS011;18335;51.486;7.562;2022-10-31T01:17:35;13.85;;;5.28;;
31760;SDS011;18335;51.486;7.562;2022-10-31T01:20:02;16.33;;;6.47;;
31760;SDS011;18335;51.486;7.562;2022-10-31T01:22:30;16.02;;;6.13;;
31760;SDS011;18335;51.486;7.562;2022-10-31T01:24:59;12.20;;;5.85;;
31760;SDS011;18335;51.486;7.562;2022-10-31T01:27:26;16.45;;;6.53;;
31760;SDS011;18335;51.486;7.562;2022-10-31T01:29:52;18.63;;;5.65;;
31760;SDS011;18335;51.486;7.562;2022-10-31T01:32:19;15.55;;;5.07;;
31760;SDS011;18335;51.486;7.562;2022-10-31T01:34:47;14.00;;;5.97;;
31760;SDS011;18335;51.486;7.562;2022-10-31T01:37:14;18.77;;;5.30;;
31760;SDS011;18335;51.486;7.562;2022-10-31T01:39:41;16.88;;;8.18;;
31760;SDS011;18335;51.486;7.562;2022-10-31T01:42:09;16.40;;;5.65;;
31760;SDS011;18335;51.486;7.562;2022-10-31T01:44:50;16.52;;;5.82;;
31760;SDS011;18335;51.486;7.562;2022-10-31T01:47:21;14.07;;;5.97;;
31760;SDS011;18335;51.486;7.562;2022-10-31T01:50:00;20.38;;;7.18;;
31760;SDS011;18335;51.486;7.562;2022-10-31T01:52:32;14.20;;;5.72;;
31760;SDS011;18335;51.486;7.562;2022-10-31T01:55:04;14.60;;;5.97;;
31760;SDS011;18335;51.486;7.562;2022-10-31T01:57:34;18.45;;;6.97;;
31760;SDS011;18335;51.486;7.562;2022-10-31T02:00:03;15.30;;;6.45;;
31760;SDS011;18335;51.486;7.562;2022-10-31T02:02:38;18.48;;;7.18;;
31760;SDS011;18335;51.486;7.562;2022-10-31T02:05:08;16.55;;;6.50;;
31760;SDS011;18335;51.486;7.562;2022-10-31T02:07:37;22.80;;;7.65;;
31760;SDS011;18335;51.486;7.562;2022-10-31T02:10:06;18.58;;;6.88;;
31760;SDS011;18335;51.486;7.562;2022-10-31T02:12:33;15.82;;;5.82;;
31760;SDS011;18335;51.486;7.562;2022-10-31T02:15:03;25.10;;;8.18;;
31760;SDS011;18335;51.486;7.562;2022-10-31T02:17:31;16.10;;;6.22;;
31760;SDS011;18335;51.486;7.562;2022-10-31T02:20:01;18.70;;;5.85;;
31760;SDS011;18335;51.486;7.562;2022-10-31T02:22:40;16.45;;;6.10;;
31760;SDS011;18335;51.486;7.562;2022-10-31T02:25:35;17.95;;;6.22;;
31760;SDS011;18335;51.486;7.562;2022-10-31T02:31:20;19.65;;;6.13;;
31760;SDS011;18335;51.486;7.562;2022-10-31T02:33:55;14.55;;;6.20;;
31760;SDS011;18335;51.486;7.562;2022-10-31T02:36:27;14.35;;;6.10;;
31760;SDS011;18335;51.486;7.562;2022-10-31T02:39:02;16.17;;;6.65;;
31760;SDS011;18335;51.486;7.562;2022-10-31T02:41:44;15.45;;;6.80;;
31760;SDS011;18335;51.486;7.562;2022-10-31T02:44:16;16.92;;;6.07;;
31760;SDS011;18335;51.486;7.562;2022-10-31T02:46:52;15.23;;;6.30;;
31760;SDS011;18335;51.486;7.562;2022-10-31T02:49:22;17.70;;;6.53;;
31760;SDS011;18335;51.486;7.562;2022-10-31T02:51:53;15.60;;;5.60;;
31760;SDS011;18335;51.486;7.562;2022-10-31T02:54:21;15.98;;;6.57;;
31760;SDS011;18335;51.486;7.562;2022-10-31T02:56:53;20.33;;;6.30;;
31760;SDS011;18335;51.486;7.562;2022-10-31T02:59:22;17.23;;;6.85;;
31760;SDS011;18335;51.486;7.562;2022-10-31T03:01:56;16.67;;;7.32;;
31760;SDS011;18335;51.486;7.562;2022-10-31T03:04:45;21.40;;;8.23;;
31760;SDS011;18335;51.486;7.562;2022-10-31T03:07:26;16.20;;;7.50;;
31760;SDS011;18335;51.486;7.562;2022-10-31T03:10:00;18.38;;;7.57;;
31760;SDS011;18335;51.486;7.562;2022-10-31T03:12:38;18.45;;;7.18;;
31760;SDS011;18335;51.486;7.562;2022-10-31T03:15:11;14.98;;;6.95;;
31760;SDS011;18335;51.486;7.562;2022-10-31T03:17:45;20.38;;;8.85;;
31760;SDS011;18335;51.486;7.562;2022-10-31T03:20:19;18.35;;;6.88;;
31760;SDS011;18335;51.486;7.562;2022-10-31T03:22:48;17.20;;;7.50;;
31760;SDS011;18335;51.486;7.562;2022-10-31T03:25:15;18.58;;;7.38;;
31760;SDS011;18335;51.486;7.562;2022-10-31T03:27:43;22.38;;;7.40;;
31760;SDS011;18335;51.486;7.562;2022-10-31T03:30:12;17.30;;;7.00;;
31760;SDS011;18335;51.486;7.562;2022-10-31T03:32:53;17.08;;;7.28;;
31760;SDS011;18335;51.486;7.562;2022-10-31T03:35:22;15.98;;;6.22;;
31760;SDS011;18335;51.486;7.562;2022-10-31T03:37:52;24.10;;;8.98;;
31760;SDS011;18335;51.486;7.562;2022-10-31T03:40:21;15.32;;;7.18;;
31760;SDS011;18335;51.486;7.562;2022-10-31T03:42:53;17.35;;;7.35;;
31760;SDS011;18335;51.486;7.562;2022-10-31T03:45:24;19.20;;;6.75;;
31760;SDS011;18335;51.486;7.562;2022-10-31T03:47:55;20.95;;;7.22;;
31760;SDS011;18335;51.486;7.562;2022-10-31T03:50:24;14.63;;;7.13;;
31760;SDS011;18335;51.486;7.562;2022-10-31T03:52:58;20.40;;;7.10;;
31760;SDS011;18335;51.486;7.562;2022-10-31T03:55:33;18.02;;;6.97;;
31760;SDS011;18335;51.486;7.562;2022-10-31T03:58:07;20.42;;;8.00;;
31760;SDS011;18335;51.486;7.562;2022-10-31T04:00:37;16.35;;;7.30;;
31760;SDS011;18335;51.486;7.562;2022-10-31T04:03:09;18.33;;;6.68;;
31760;SDS011;18335;51.486;7.562;2022-10-31T04:05:43;21.90;;;7.55;;
31760;SDS011;18335;51.486;7.562;2022-10-31T04:08:14;15.18;;;7.60;;
31760;SDS011;18335;51.486;7.562;2022-10-31T04:10:46;17.65;;;6.95;;
31760;SDS011;18335;51.486;7.562;2022-10-31T04:13:17;19.35;;;7.25;;
31760;SDS011;18335;51.486;7.562;2022-10-31T04:15:56;16.70;;;7.03;;
31760;SDS011;18335;51.486;7.562;2022-10-31T04:18:26;16.20;;;6.80;;
31760;SDS011;18335;51.486;7.562;2022-10-31T04:20:59;18.75;;;6.97;;
31760;SDS011;18335;51.486;7.562;2022-10-31T04:23:27;16.02;;;6.43;;
31760;SDS011;18335;51.486;7.562;2022-10-31T04:25:54;23.75;;;8.50;;
31760;SDS011;18335;51.486;7.562;2022-10-31T04:28:21;15.32;;;6.40;;
31760;SDS011;18335;51.486;7.562;2022-10-31T04:30:48;19.52;;;7.10;;
31760;SDS011;18335;51.486;7.562;2022-10-31T04:33:15;18.35;;;10.18;;
31760;SDS011;18335;51.486;7.562;2022-10-31T04:35:47;22.50;;;7.38;;
31760;SDS011;18335;51.486;7.562;2022-10-31T04:38:14;20.48;;;8.77;;
31760;SDS011;18335;51.486;7.562;2022-10-31T04:40:42;16.23;;;8.65;;
31760;SDS011;18335;51.486;7.562;2022-10-31T04:43:27;19.23;;;8.77;;
31760;SDS011;18335;51.486;7.562;2022-10-31T04:45:54;21.05;;;7.75;;
31760;SDS011;18335;51.486;7.562;2022-10-31T04:48:21;19.35;;;8.65;;
31760;SDS011;18335;51.486;7.562;2022-10-31T04:50:49;20.90;;;9.57;;
31760;SDS011;18335;51.486;7.562;2022-10-31T04:53:16;20.05;;;8.43;;
31760;SDS011;18335;51.486;7.562;2022-10-31T04:56:01;23.73;;;8.48;;
31760;SDS011;18335;51.486;7.562;2022-10-31T04:58:39;16.50;;;8.38;;
31760;SDS011;18335;51.486;7.562;2022-10-31T05:01:08;22.65;;;8.90;;
31760;SDS011;18335;51.486;7.562;2022-10-31T05:03:35;19.88;;;9.88;;
31760;SDS011;18335;51.486;7.562;2022-10-31T05:06:06;24.58;;;11.40;;
31760;SDS011;18335;51.486;7.562;2022-10-31T05:08:33;21.30;;;10.90;;
31760;SDS011;18335;51.486;7.562;2022-10-31T05:11:03;22.58;;;9.65;;
31760;SDS011;18335;51.486;7.562;2022-10-31T05:13:31;21.80;;;9.30;;
31760;SDS011;18335;51.486;7.562;2022-10-31T05:16:13;18.65;;;9.07;;
31760;SDS011;18335;51.486;7.562;2022-10-31T05:19:05;19.38;;;8.60;;
31760;SDS011;18335;51.486;7.562;2022-10-31T05:21:52;19.23;;;8.48;;
31760;SDS011;18335;51.486;7.562;2022-10-31T05:24:19;19.00;;;9.80;;
31760;SDS011;18335;51.486;7.562;2022-10-31T05:26:47;21.55;;;10.55;;
31760;SDS011;18335;51.486;7.562;2022-10-31T05:29:13;20.40;;;11.02;;
31760;SDS011;18335;51.486;7.562;2022-10-31T05:31:40;22.88;;;11.57;;
31760;SDS011;18335;51.486;7.562;2022-10-31T05:34:17;22.23;;;10.20;;
31760;SDS011;18335;51.486;7.562;2022-10-31T05:36:43;24.13;;;9.73;;
31760;SDS011;18335;51.486;7.562;2022-10-31T05:39:23;24.05;;;9.45;;
31760;SDS011;18335;51.486;7.562;2022-10-31T05:41:54;20.77;;;9.48;;
31760;SDS011;18335;51.486;7.562;2022-10-31T05:44:24;22.20;;;9.25;;
31760;SDS011;18335;51.486;7.562;2022-10-31T05:47:11;29.17;;;9.65;;
31760;SDS011;18335;51.486;7.562;2022-10-31T05:49:57;20.45;;;9.38;;
31760;SDS011;18335;51.486;7.562;2022-10-31T05:52:45;21.10;;;8.68;;
31760;SDS011;18335;51.486;7.562;2022-10-31T05:55:34;26.55;;;8.88;;
31760;SDS011;18335;51.486;7.562;2022-10-31T05:58:10;21.17;;;8.82;;
31760;SDS011;18335;51.486;7.562;2022-10-31T06:00:40;21.45;;;8.80;;
31760;SDS011;18335;51.486;7.562;2022-10-31T06:03:08;19.10;;;9.45;;
31760;SDS011;18335;51.486;7.562;2022-10-31T06:05:46;18.00;;;7.95;;
31760;SDS011;18335;51.486;7.562;2022-10-31T06:08:13;24.13;;;9.35;;
31760;SDS011;18335;51.486;7.562;2022-10-31T06:10:42;17.02;;;8.25;;
31760;SDS011;18335;51.486;7.562;2022-10-31T06:13:10;18.42;;;8.55;;
31760;SDS011;18335;51.486;7.562;2022-10-31T06:15:43;23.08;;;8.52;;
31760;SDS011;18335;51.486;7.562;2022-10-31T06:18:11;18.63;;;8.77;;
31760;SDS011;18335;51.486;7.562;2022-10-31T06:20:49;17.75;;;8.20;;
31760;SDS011;18335;51.486;7.562;2022-10-31T06:23:16;19.20;;;8.77;;
31760;SDS011;18335;51.486;7.562;2022-10-31T06:25:49;19.20;;;8.52;;
31760;SDS011;18335;51.486;7.562;2022-10-31T06:28:16;16.77;;;8.70;;
31760;SDS011;18335;51.486;7.562;2022-10-31T06:30:52;20.08;;;9.10;;
31760;SDS011;18335;51.486;7.562;2022-10-31T06:33:20;18.58;;;8.82;;
31760;SDS011;18335;51.486;7.562;2022-10-31T06:35:59;17.13;;;9.93;;
31760;SDS011;18335;51.486;7.562;2022-10-31T06:38:26;21.50;;;9.52;;
31760;SDS011;18335;51.486;7.562;2022-10-31T06:40:55;21.35;;;9.27;;
31760;SDS011;18335;51.486;7.562;2022-10-31T06:43:25;20.30;;;9.27;;
31760;SDS011;18335;51.486;7.562;2022-10-31T06:46:11;24.33;;;9.43;;
31760;SDS011;18335;51.486;7.562;2022-10-31T06:48:42;20.85;;;9.48;;
31760;SDS011;18335;51.486;7.562;2022-10-31T06:51:19;18.77;;;9.70;;
31760;SDS011;18335;51.486;7.562;2022-10-31T06:53:49;17.42;;;9.00;;
31760;SDS011;18335;51.486;7.562;2022-10-31T06:56:18;18.10;;;8.85;;
31760;SDS011;18335;51.486;7.562;2022-10-31T06:58:49;18.08;;;9.50;;
31760;SDS011;18335;51.486;7.562;2022-10-31T07:01:24;19.40;;;9.65;;
31760;SDS011;18335;51.486;7.562;2022-10-31T07:03:51;24.10;;;12.73;;
31760;SDS011;18335;51.486;7.562;2022-10-31T07:06:17;22.85;;;10.32;;
31760;SDS011;18335;51.486;7.562;2022-10-31T07:08:45;24.10;;;10.63;;
31760;SDS011;18335;51.486;7.562;2022-10-31T07:11:12;23.17;;;9.88;;
31760;SDS011;18335;51.486;7.562;2022-10-31T07:13:40;23.98;;;10.77;;
31760;SDS011;18335;51.486;7.562;2022-10-31T07:16:08;22.63;;;10.30;;
31760;SDS011;18335;51.486;7.562;2022-10-31T07:18:37;25.15;;;11.57;;
31760;SDS011;18335;51.486;7.562;2022-10-31T07:21:04;19.15;;;10.52;;
31760;SDS011;18335;51.486;7.562;2022-10-31T07:23:31;19.15;;;9.15;;
31760;SDS011;18335;51.486;7.562;2022-10-31T07:26:16;22.38;;;10.45;;
31760;SDS011;18335;51.486;7.562;2022-10-31T07:28:46;19.85;;;10.00;;
31760;SDS011;18335;51.486;7.562;2022-10-31T07:31:15;23.48;;;10.85;;
31760;SDS011;18335;51.486;7.562;2022-10-31T07:33:42;20.77;;;10.60;;
31760;SDS011;18335;51.486;7.562;2022-10-31T07:36:27;25.48;;;10.13;;
31760;SDS011;18335;51.486;7.562;2022-10-31T07:39:00;20.92;;;10.02;;
31760;SDS011;18335;51.486;7.562;2022-10-31T07:41:29;25.15;;;10.75;;
31760;SDS011;18335;51.486;7.562;2022-10-31T07:43:57;32.50;;;10.23;;
31760;SDS011;18335;51.486;7.562;2022-10-31T07:46:53;25.08;;;10.88;;
31760;SDS011;18335;51.486;7.562;2022-10-31T07:49:20;34.83;;;13.10;;
31760;SDS011;18335;51.486;7.562;2022-10-31T07:52:05;18.85;;;10.05;;
31760;SDS011;18335;51.486;7.562;2022-10-31T07:54:57;20.90;;;10.13;;
31760;SDS011;18335;51.486;7.562;2022-10-31T07:57:24;20.27;;;10.07;;
31760;SDS011;18335;51.486;7.562;2022-10-31T07:59:52;23.42;;;10.65;;
31760;SDS011;18335;51.486;7.562;2022-10-31T08:02:19;23.67;;;10.82;;
31760;SDS011;18335;51.486;7.562;2022-10-31T08:05:05;23.67;;;10.10;;
31760;SDS011;18335;51.486;7.562;2022-10-31T08:07:58;23.70;;;10.45;;
31760;SDS011;18335;51.486;7.562;2022-10-31T08:10:25;19.08;;;10.27;;
31760;SDS011;18335;51.486;7.562;2022-10-31T08:12:56;21.90;;;10.38;;
31760;SDS011;18335;51.486;7.562;2022-10-31T08:15:25;18.80;;;9.95;;
31760;SDS011;18335;51.486;7.562;2022-10-31T08:17:52;22.23;;;10.63;;
31760;SDS011;18335;51.486;7.562;2022-10-31T08:20:19;22.85;;;10.02;;
31760;SDS011;18335;51.486;7.562;2022-10-31T08:22:53;27.63;;;11.10;;
31760;SDS011;18335;51.486;7.562;2022-10-31T08:25:21;24.70;;;11.63;;
31760;SDS011;18335;51.486;7.562;2022-10-31T08:27:49;21.63;;;10.50;;
31760;SDS011;18335;51.486;7.562;2022-10-31T08:30:17;21.92;;;10.07;;
31760;SDS011;18335;51.486;7.562;2022-10-31T08:33:01;27.75;;;10.98;;
31760;SDS011;18335;51.486;7.562;2022-10-31T08:35:52;23.73;;;11.45;;
31760;SDS011;18335;51.486;7.562;2022-10-31T08:38:37;28.02;;;12.43;;
31760;SDS011;18335;51.486;7.562;2022-10-31T08:41:07;29.25;;;11.30;;
31760;SDS011;18335;51.486;7.562;2022-10-31T08:43:34;27.13;;;10.15;;
31760;SDS011;18335;51.486;7.562;2022-10-31T08:46:01;29.90;;;12.20;;
31760;SDS011;18335;51.486;7.562;2022-10-31T08:48:29;32.08;;;11.93;;
31760;SDS011;18335;51.486;7.562;2022-10-31T08:50:57;41.00;;;14.30;;
31760;SDS011;18335;51.486;7.562;2022-10-31T08:53:26;34.72;;;12.18;;
31760;SDS011;18335;51.486;7.562;2022-10-31T08:56:09;27.42;;;12.18;;
31760;SDS011;18335;51.486;7.562;2022-10-31T08:58:36;36.33;;;13.65;;
31760;SDS011;18335;51.486;7.562;2022-10-31T09:01:03;26.52;;;11.98;;
31760;SDS011;18335;51.486;7.562;2022-10-31T09:03:31;32.65;;;13.60;;
31760;SDS011;18335;51.486;7.562;2022-10-31T09:05:59;28.83;;;12.35;;
31760;SDS011;18335;51.486;7.562;2022-10-31T09:08:28;26.20;;;12.30;;
31760;SDS011;18335;51.486;7.562;2022-10-31T09:10:56;28.13;;;12.70;;
31760;SDS011;18335;51.486;7.562;2022-10-31T09:13:43;32.05;;;12.73;;
31760;SDS011;18335;51.486;7.562;2022-10-31T09:16:29;30.35;;;13.65;;
31760;SDS011;18335;51.486;7.562;2022-10-31T09:18:58;30.52;;;14.10;;
31760;SDS011;18335;51.486;7.562;2022-10-31T09:21:25;27.80;;;12.48;;
31760;SDS011;18335;51.486;7.562;2022-10-31T09:23:52;33.20;;;15.00;;
31760;SDS011;18335;51.486;7.562;2022-10-31T09:26:19;31.67;;;13.00;;
31760;SDS011;18335;51.486;7.562;2022-10-31T09:28:54;29.42;;;13.85;;
31760;SDS011;18335;51.486;7.562;2022-10-31T09:31:23;26.55;;;13.63;;
31760;SDS011;18335;51.486;7.562;2022-10-31T09:33:55;30.20;;;14.77;;
31760;SDS011;18335;51.486;7.562;2022-10-31T09:36:38;23.90;;;12.70;;
31760;SDS011;18335;51.486;7.562;2022-10-31T09:39:08;34.25;;;14.75;;
31760;SDS011;18335;51.486;7.562;2022-10-31T09:41:42;23.67;;;13.20;;
31760;SDS011;18335;51.486;7.562;2022-10-31T09:44:23;37.13;;;15.70;;
31760;SDS011;18335;51.486;7.562;2022-10-31T09:46:58;39.72;;;16.10;;
31760;SDS011;18335;51.486;7.562;2022-10-31T09:49:37;35.10;;;15.75;;
31760;SDS011;18335;51.486;7.562;2022-10-31T09:52:23;35.17;;;15.07;;
31760;SDS011;18335;51.486;7.562;2022-10-31T09:54:57;34.35;;;17.38;;
31760;SDS011;18335;51.486;7.562;2022-10-31T09:57:27;38.60;;;17.92;;
31760;SDS011;18335;51.486;7.562;2022-10-31T09:59:56;29.70;;;15.20;;
31760;SDS011;18335;51.486;7.562;2022-10-31T10:02:24;28.05;;;14.60;;
31760;SDS011;18335;51.486;7.562;2022-10-31T10:04:56;36.30;;;17.77;;
31760;SDS011;18335;51.486;7.562;2022-10-31T10:07:28;37.15;;;17.23;;
31760;SDS011;18335;51.486;7.562;2022-10-31T10:10:36;32.65;;;16.33;;
31760;SDS011;18335;51.486;7.562;2022-10-31T10:13:42;41.30;;;17.55;;
31760;SDS011;18335;51.486;7.562;2022-10-31T10:16:24;65.25;;;29.92;;
31760;SDS011;18335;51.486;7.562;2022-10-31T10:19:07;50.28;;;22.52;;
31760;SDS011;18335;51.486;7.562;2022-10-31T10:21:44;52.38;;;23.30;;
31760;SDS011;18335;51.486;7.562;2022-10-31T10:24:27;36.67;;;18.08;;
31760;SDS011;18335;51.486;7.562;2022-10-31T10:27:03;39.33;;;18.73;;
31760;SDS011;18335;51.486;7.562;2022-10-31T10:29:37;40.33;;;19.27;;
31760;SDS011;18335;51.486;7.562;2022-10-31T10:32:09;39.28;;;17.65;;
31760;SDS011;18335;51.486;7.562;2022-10-31T10:34:44;35.95;;;17.02;;
31760;SDS011;18335;51.486;7.562;2022-10-31T10:37:17;36.30;;;17.67;;
31760;SDS011;18335;51.486;7.562;2022-10-31T10:39:52;32.53;;;16.88;;
31760;SDS011;18335;51.486;7.562;2022-10-31T10:42:21;33.92;;;17.92;;
31760;SDS011;18335;51.486;7.562;2022-10-31T10:45:13;36.17;;;18.02;;
31760;SDS011;18335;51.486;7.562;2022-10-31T10:48:00;36.40;;;16.75;;
31760;SDS011;18335;51.486;7.562;2022-10-31T10:50:35;33.37;;;16.50;;
31760;SDS011;18335;51.486;7.562;2022-10-31T10:53:07;37.30;;;15.38;;
31760;SDS011;18335;51.486;7.562;2022-10-31T10:55:49;36.72;;;16.80;;
31760;SDS011;18335;51.486;7.562;2022-10-31T10:58:19;32.60;;;16.75;;
31760;SDS011;18335;51.486;7.562;2022-10-31T11:00:46;31.10;;;16.60;;
31760;SDS011;18335;51.486;7.562;2022-10-31T11:03:14;26.98;;;15.70;;
31760;SDS011;18335;51.486;7.562;2022-10-31T11:05:44;45.05;;;19.10;;
31760;SDS011;18335;51.486;7.562;2022-10-31T11:08:22;32.05;;;16.55;;
31760;SDS011;18335;51.486;7.562;2022-10-31T11:10:57;35.67;;;16.97;;
31760;SDS011;18335;51.486;7.562;2022-10-31T11:13:25;28.70;;;16.52;;
31760;SDS011;18335;51.486;7.562;2022-10-31T11:15:56;34.00;;;16.83;;
31760;SDS011;18335;51.486;7.562;2022-10-31T11:18:26;30.17;;;15.93;;
31760;SDS011;18335;51.486;7.562;2022-10-31T11:20:56;36.05;;;15.32;;
31760;SDS011;18335;51.486;7.562;2022-10-31T11:23:24;37.83;;;17.42;;
31760;SDS011;18335;51.486;7.562;2022-10-31T11:25:54;29.42;;;14.88;;
31760;SDS011;18335;51.486;7.562;2022-10-31T11:28:24;30.42;;;13.55;;
31760;SDS011;18335;51.486;7.562;2022-10-31T11:30:52;26.23;;;13.93;;
31760;SDS011;18335;51.486;7.562;2022-10-31T11:33:22;30.73;;;14.57;;
31760;SDS011;18335;51.486;7.562;2022-10-31T11:35:53;30.65;;;13.02;;
31760;SDS011;18335;51.486;7.562;2022-10-31T11:38:22;30.88;;;13.63;;
31760;SDS011;18335;51.486;7.562;2022-10-31T11:40:51;26.15;;;13.13;;
31760;SDS011;18335;51.486;7.562;2022-10-31T11:43:19;28.77;;;12.02;;
31760;SDS011;18335;51.486;7.562;2022-10-31T11:45:48;26.75;;;13.55;;
31760;SDS011;18335;51.486;7.562;2022-10-31T11:48:15;27.75;;;13.55;;
31760;SDS011;18335;51.486;7.562;2022-10-31T11:50:47;31.48;;;14.88;;
31760;SDS011;18335;51.486;7.562;2022-10-31T11:53:17;32.88;;;14.10;;
31760;SDS011;18335;51.486;7.562;2022-10-31T11:55:45;27.35;;;12.35;;
31760;SDS011;18335;51.486;7.562;2022-10-31T11:58:19;24.77;;;11.48;;
31760;SDS011;18335;51.486;7.562;2022-10-31T12:00:49;25.15;;;11.80;;
31760;SDS011;18335;51.486;7.562;2022-10-31T12:03:25;23.27;;;10.70;;
31760;SDS011;18335;51.486;7.562;2022-10-31T12:06:00;22.70;;;12.27;;
31760;SDS011;18335;51.486;7.562;2022-10-31T12:08:33;21.40;;;10.57;;
31760;SDS011;18335;51.486;7.562;2022-10-31T12:11:03;21.50;;;10.23;;
31760;SDS011;18335;51.486;7.562;2022-10-31T12:13:38;27.95;;;10.32;;
31760;SDS011;18335;51.486;7.562;2022-10-31T12:16:17;20.50;;;8.90;;
31760;SDS011;18335;51.486;7.562;2022-10-31T12:18:52;22.17;;;9.43;;
31760;SDS011;18335;51.486;7.562;2022-10-31T12:24:14;22.27;;;9.13;;
31760;SDS011;18335;51.486;7.562;2022-10-31T12:26:53;22.63;;;9.75;;
31760;SDS011;18335;51.486;7.562;2022-10-31T12:29:33;25.60;;;11.40;;
31760;SDS011;18335;51.486;7.562;2022-10-31T12:32:21;25.77;;;10.40;;
31760;SDS011;18335;51.486;7.562;2022-10-31T12:37:57;21.13;;;9.93;;
31760;SDS011;18335;51.486;7.562;2022-10-31T12:40:45;25.35;;;10.13;;
31760;SDS011;18335;51.486;7.562;2022-10-31T12:43:29;24.48;;;11.15;;
31760;SDS011;18335;51.486;7.562;2022-10-31T12:46:02;22.60;;;9.57;;
31760;SDS011;18335;51.486;7.562;2022-10-31T12:48:38;22.58;;;9.75;;
31760;SDS011;18335;51.486;7.562;2022-10-31T12:51:17;27.60;;;10.35;;
31760;SDS011;18335;51.486;7.562;2022-10-31T12:56:48;22.05;;;9.48;;
31760;SDS011;18335;51.486;7.562;2022-10-31T12:59:22;24.17;;;10.18;;
31760;SDS011;18335;51.486;7.562;2022-10-31T13:01:55;22.15;;;8.88;;
31760;SDS011;18335;51.486;7.562;2022-10-31T13:04:33;23.77;;;10.27;;
31760;SDS011;18335;51.486;7.562;2022-10-31T13:07:05;24.63;;;9.90;;
31760;SDS011;18335;51.486;7.562;2022-10-31T13:09:39;29.40;;;9.05;;
31760;SDS011;18335;51.486;7.562;2022-10-31T13:12:09;25.70;;;9.75;;
31760;SDS011;18335;51.486;7.562;2022-10-31T13:14:39;23.40;;;10.63;;
31760;SDS011;18335;51.486;7.562;2022-10-31T13:17:11;23.20;;;9.90;;
31760;SDS011;18335;51.486;7.562;2022-10-31T13:19:48;22.95;;;9.68;;
31760;SDS011;18335;51.486;7.562;2022-10-31T13:22:20;21.23;;;9.25;;
31760;SDS011;18335;51.486;7.562;2022-10-31T13:24:52;20.63;;;8.70;;
31760;SDS011;18335;51.486;7.562;2022-10-31T13:27:24;26.27;;;9.52;;
31760;SDS011;18335;51.486;7.562;2022-10-31T13:29:56;25.63;;;10.07;;
31760;SDS011;18335;51.486;7.562;2022-10-31T13:32:28;22.52;;;9.20;;
31760;SDS011;18335;51.486;7.562;2022-10-31T13:35:14;21.33;;;8.23;;
31760;SDS011;18335;51.486;7.562;2022-10-31T13:37:48;22.98;;;9.35;;
31760;SDS011;18335;51.486;7.562;2022-10-31T13:40:24;27.15;;;9.70;;
31760;SDS011;18335;51.486;7.562;2022-10-31T13:43:02;20.65;;;8.80;;
31760;SDS011;18335;51.486;7.562;2022-10-31T13:45:46;20.88;;;9.57;;
31760;SDS011;18335;51.486;7.562;2022-10-31T13:48:19;24.85;;;9.48;;
31760;SDS011;18335;51.486;7.562;2022-10-31T13:51:01;19.27;;;8.38;;
31760;SDS011;18335;51.486;7.562;2022-10-31T13:53:36;19.50;;;8.60;;
31760;SDS011;18335;51.486;7.562;2022-10-31T13:56:10;26.63;;;8.40;;
31760;SDS011;18335;51.486;7.562;2022-10-31T13:59:04;17.58;;;8.30;;
31760;SDS011;18335;51.486;7.562;2022-10-31T14:01:45;22.52;;;9.70;;
31760;SDS011;18335;51.486;7.562;2022-10-31T14:04:18;31.77;;;8.45;;
31760;SDS011;18335;51.486;7.562;2022-10-31T14:06:57;20.83;;;7.93;;
31760;SDS011;18335;51.486;7.562;2022-10-31T14:09:31;20.58;;;8.30;;
31760;SDS011;18335;51.486;7.562;2022-10-31T14:12:02;20.25;;;8.60;;
31760;SDS011;18335;51.486;7.562;2022-10-31T14:14:33;28.85;;;10.20;;
31760;SDS011;18335;51.486;7.562;2022-10-31T14:17:13;22.10;;;8.52;;
31760;SDS011;18335;51.486;7.562;2022-10-31T14:19:55;21.10;;;8.18;;
31760;SDS011;18335;51.486;7.562;2022-10-31T14:22:28;15.80;;;8.05;;
31760;SDS011;18335;51.486;7.562;2022-10-31T14:24:56;17.02;;;8.07;;
31760;SDS011;18335;51.486;7.562;2022-10-31T14:30:16;20.23;;;8.80;;
31760;SDS011;18335;51.486;7.562;2022-10-31T14:32:47;20.38;;;7.97;;
31760;SDS011;18335;51.486;7.562;2022-10-31T14:35:17;18.15;;;7.65;;
31760;SDS011;18335;51.486;7.562;2022-10-31T14:37:54;19.25;;;7.70;;
31760;SDS011;18335;51.486;7.562;2022-10-31T14:40:33;20.10;;;8.05;;
31760;SDS011;18335;51.486;7.562;2022-10-31T14:43:19;20.30;;;8.27;;
31760;SDS011;18335;51.486;7.562;2022-10-31T14:46:00;18.42;;;8.45;;
31760;SDS011;18335;51.486;7.562;2022-10-31T14:48:38;18.92;;;7.65;;
31760;SDS011;18335;51.486;7.562;2022-10-31T14:51:15;24.25;;;8.30;;
31760;SDS011;18335;51.486;7.562;2022-10-31T14:53:46;20.80;;;7.97;;
31760;SDS011;18335;51.486;7.562;2022-10-31T14:56:17;20.05;;;8.18;;
31760;SDS011;18335;51.486;7.562;2022-10-31T14:58:49;22.00;;;9.30;;
31760;SDS011;18335;51.486;7.562;2022-10-31T15:01:18;21.30;;;8.30;;
31760;SDS011;18335;51.486;7.562;2022-10-31T15:03:49;23.42;;;9.32;;
31760;SDS011;18335;51.486;7.562;2022-10-31T15:06:17;18.48;;;7.63;;
31760;SDS011;18335;51.486;7.562;2022-10-31T15:08:48;20.45;;;8.45;;
31760;SDS011;18335;51.486;7.562;2022-10-31T15:11:18;19.27;;;7.45;;
31760;SDS011;18335;51.486;7.562;2022-10-31T15:13:46;19.23;;;7.80;;
31760;SDS011;18335;51.486;7.562;2022-10-31T15:16:15;24.33;;;8.10;;